sensor_id;sensor_type;location;lat;lon;timestamp;temperature;humidity
44359;DHT22;30077;52.474;13.326;2023-05-16T00:03:10;14.30;99.90
44359;DHT22;30077;52.474;13.326;2023-05-16T00:08:11;14.40;99.90
44359;DHT22;30077;52.474;13.326;2023-05-16T00:13:12;14.40;99.90
44359;DHT22;30077;52.474;13.326;2023-05-16T00:18:12;14.30;99.90
44359;DHT22;30077;52.474;13.326;2023-05-16T00:23:16;14.30;99.90
44359;DHT22;30077;52.474;13.326;2023-05-16T00:28:16;14.20;99.90
44359;DHT22;30077;52.474;13.326;2023-05-16T00:33:17;14.20;99.90
44359;DHT22;30077;52.474;13.326;2023-05-16T00:38:18;14.10;99.90
44359;DHT22;30077;52.474;13.326;2023-05-16T00:43:18;14.00;99.90
44359;DHT22;30077;52.474;13.326;2023-05-16T00:48:19;13.90;99.90
44359;DHT22;30077;52.474;13.326;2023-05-16T00:53:20;13.90;99.90
44359;DHT22;30077;52.474;13.326;2023-05-16T00:58:21;13.80;99.90
44359;DHT22;30077;52.474;13.326;2023-05-16T01:03:22;13.80;99.90
44359;DHT22;30077;52.474;13.326;2023-05-16T01:08:25;13.60;99.90
44359;DHT22;30077;52.474;13.326;2023-05-16T01:19:06;13.50;99.90
44359;DHT22;30077;52.474;13.326;2023-05-16T01:24:32;13.30;99.90
44359;DHT22;30077;52.474;13.326;2023-05-16T01:29:34;13.10;99.90
44359;DHT22;30077;52.474;13.326;2023-05-16T01:34:34;13.00;99.90
44359;DHT22;30077;52.474;13.326;2023-05-16T01:40:07;12.90;99.90
44359;DHT22;30077;52.474;13.326;2023-05-16T01:45:22;12.90;99.90
44359;DHT22;30077;52.474;13.326;2023-05-16T01:50:25;12.80;99.90
44359;DHT22;30077;52.474;13.326;2023-05-16T01:55:41;12.70;99.90
44359;DHT22;30077;52.474;13.326;2023-05-16T02:00:43;12.60;99.90
44359;DHT22;30077;52.474;13.326;2023-05-16T02:05:44;12.60;99.90
44359;DHT22;30077;52.474;13.326;2023-05-16T02:10:44;12.60;99.90
44359;DHT22;30077;52.474;13.326;2023-05-16T02:15:45;12.40;99.90
44359;DHT22;30077;52.474;13.326;2023-05-16T02:20:45;12.20;99.90
44359;DHT22;30077;52.474;13.326;2023-05-16T02:25:46;12.30;99.90
44359;DHT22;30077;52.474;13.326;2023-05-16T02:30:55;12.30;99.90
44359;DHT22;30077;52.474;13.326;2023-05-16T02:35:57;12.30;99.90
44359;DHT22;30077;52.474;13.326;2023-05-16T02:40:58;12.40;99.90
44359;DHT22;30077;52.474;13.326;2023-05-16T02:45:59;12.30;99.90
44359;DHT22;30077;52.474;13.326;2023-05-16T02:51:00;12.40;99.90
44359;DHT22;30077;52.474;13.326;2023-05-16T02:56:01;12.30;99.90
44359;DHT22;30077;52.474;13.326;2023-05-16T03:01:01;12.20;99.90
44359;DHT22;30077;52.474;13.326;2023-05-16T03:06:02;12.30;99.90
44359;DHT22;30077;52.474;13.326;2023-05-16T03:11:03;12.20;99.90
44359;DHT22;30077;52.474;13.326;2023-05-16T03:16:04;12.20;99.90
44359;DHT22;30077;52.474;13.326;2023-05-16T03:21:05;12.20;99.90
44359;DHT22;30077;52.474;13.326;2023-05-16T03:26:05;12.20;99.90
44359;DHT22;30077;52.474;13.326;2023-05-16T03:31:06;12.10;99.90
44359;DHT22;30077;52.474;13.326;2023-05-16T03:36:07;12.10;99.90
44359;DHT22;30077;52.474;13.326;2023-05-16T03:41:08;12.00;99.90
44359;DHT22;30077;52.474;13.326;2023-05-16T03:46:08;12.00;99.90
44359;DHT22;30077;52.474;13.326;2023-05-16T03:51:09;11.80;99.90
44359;DHT22;30077;52.474;13.326;2023-05-16T03:56:11;11.70;99.90
44359;DHT22;30077;52.474;13.326;2023-05-16T04:01:13;11.80;99.90
44359;DHT22;30077;52.474;13.326;2023-05-16T04:06:13;11.70;99.90
44359;DHT22;30077;52.474;13.326;2023-05-16T04:11:14;11.50;99.90
44359;DHT22;30077;52.474;13.326;2023-05-16T04:16:14;11.60;99.90
44359;DHT22;30077;52.474;13.326;2023-05-16T04:21:15;11.60;99.90
44359;DHT22;30077;52.474;13.326;2023-05-16T04:26:15;11.80;99.90
44359;DHT22;30077;52.474;13.326;2023-05-16T04:31:16;11.80;99.90
44359;DHT22;30077;52.474;13.326;2023-05-16T04:36:16;11.80;99.90
44359;DHT22;30077;52.474;13.326;2023-05-16T04:41:17;11.70;99.90
44359;DHT22;30077;52.474;13.326;2023-05-16T04:46:18;11.60;99.90
44359;DHT22;30077;52.474;13.326;2023-05-16T04:51:20;11.60;99.90
44359;DHT22;30077;52.474;13.326;2023-05-16T04:56:21;11.50;99.90
44359;DHT22;30077;52.474;13.326;2023-05-16T05:01:21;11.70;99.90
44359;DHT22;30077;52.474;13.326;2023-05-16T05:06:22;11.60;99.90
44359;DHT22;30077;52.474;13.326;2023-05-16T05:11:22;11.60;99.90
44359;DHT22;30077;52.474;13.326;2023-05-16T05:16:23;11.60;99.90
44359;DHT22;30077;52.474;13.326;2023-05-16T05:21:23;11.50;99.90
44359;DHT22;30077;52.474;13.326;2023-05-16T05:26:24;11.30;99.90
44359;DHT22;30077;52.474;13.326;2023-05-16T05:31:25;11.50;99.90
44359;DHT22;30077;52.474;13.326;2023-05-16T05:36:26;11.50;99.90
44359;DHT22;30077;52.474;13.326;2023-05-16T05:41:28;11.70;99.90
44359;DHT22;30077;52.474;13.326;2023-05-16T05:46:28;11.60;99.90
44359;DHT22;30077;52.474;13.326;2023-05-16T05:51:29;11.80;99.90
44359;DHT22;30077;52.474;13.326;2023-05-16T05:56:29;11.90;99.90
44359;DHT22;30077;52.474;13.326;2023-05-16T06:01:30;11.80;99.90
44359;DHT22;30077;52.474;13.326;2023-05-16T06:06:31;11.80;99.90
44359;DHT22;30077;52.474;13.326;2023-05-16T06:11:31;12.00;99.90
44359;DHT22;30077;52.474;13.326;2023-05-16T06:16:32;12.00;99.90
44359;DHT22;30077;52.474;13.326;2023-05-16T06:21:33;12.00;99.90
44359;DHT22;30077;52.474;13.326;2023-05-16T06:26:34;12.10;99.90
44359;DHT22;30077;52.474;13.326;2023-05-16T06:31:34;11.70;99.90
44359;DHT22;30077;52.474;13.326;2023-05-16T06:36:35;12.00;99.90
44359;DHT22;30077;52.474;13.326;2023-05-16T06:41:36;12.10;99.90
44359;DHT22;30077;52.474;13.326;2023-05-16T06:46:36;12.00;99.90
44359;DHT22;30077;52.474;13.326;2023-05-16T06:51:37;11.90;99.90
44359;DHT22;30077;52.474;13.326;2023-05-16T06:56:38;12.00;99.90
44359;DHT22;30077;52.474;13.326;2023-05-16T07:01:38;12.30;99.90
44359;DHT22;30077;52.474;13.326;2023-05-16T07:06:38;12.00;99.90
44359;DHT22;30077;52.474;13.326;2023-05-16T07:11:39;12.00;99.90
44359;DHT22;30077;52.474;13.326;2023-05-16T07:16:40;12.20;99.90
44359;DHT22;30077;52.474;13.326;2023-05-16T07:21:40;12.30;99.90
44359;DHT22;30077;52.474;13.326;2023-05-16T07:26:41;12.10;99.90
44359;DHT22;30077;52.474;13.326;2023-05-16T07:31:41;12.40;99.90
44359;DHT22;30077;52.474;13.326;2023-05-16T07:36:42;12.60;99.90
44359;DHT22;30077;52.474;13.326;2023-05-16T07:41:43;12.80;99.90
44359;DHT22;30077;52.474;13.326;2023-05-16T07:46:43;13.10;99.90
44359;DHT22;30077;52.474;13.326;2023-05-16T07:51:44;13.00;99.90
44359;DHT22;30077;52.474;13.326;2023-05-16T07:56:44;13.00;99.90
44359;DHT22;30077;52.474;13.326;2023-05-16T08:01:45;12.80;99.90
44359;DHT22;30077;52.474;13.326;2023-05-16T08:06:45;12.50;99.90
44359;DHT22;30077;52.474;13.326;2023-05-16T08:11:46;12.20;99.90
44359;DHT22;30077;52.474;13.326;2023-05-16T08:16:46;12.50;99.90
44359;DHT22;30077;52.474;13.326;2023-05-16T08:21:47;12.90;99.90
44359;DHT22;30077;52.474;13.326;2023-05-16T08:26:47;12.70;99.90
44359;DHT22;30077;52.474;13.326;2023-05-16T08:31:48;12.80;99.90
44359;DHT22;30077;52.474;13.326;2023-05-16T08:36:48;12.80;99.90
44359;DHT22;30077;52.474;13.326;2023-05-16T08:41:49;12.50;99.90
44359;DHT22;30077;52.474;13.326;2023-05-16T08:46:51;12.30;99.90
44359;DHT22;30077;52.474;13.326;2023-05-16T08:51:56;12.40;99.90
44359;DHT22;30077;52.474;13.326;2023-05-16T08:56:57;12.80;99.90
44359;DHT22;30077;52.474;13.326;2023-05-16T09:02:00;12.80;99.90
44359;DHT22;30077;52.474;13.326;2023-05-16T09:07:00;13.10;99.90
44359;DHT22;30077;52.474;13.326;2023-05-16T09:12:01;12.90;99.90
44359;DHT22;30077;52.474;13.326;2023-05-16T09:17:06;13.10;99.90
44359;DHT22;30077;52.474;13.326;2023-05-16T09:22:13;13.00;99.90
44359;DHT22;30077;52.474;13.326;2023-05-16T09:27:14;13.20;99.90
44359;DHT22;30077;52.474;13.326;2023-05-16T09:32:16;13.10;99.90
44359;DHT22;30077;52.474;13.326;2023-05-16T09:37:17;13.00;99.90
44359;DHT22;30077;52.474;13.326;2023-05-16T09:42:19;13.20;99.90
44359;DHT22;30077;52.474;13.326;2023-05-16T09:47:20;13.10;99.90
44359;DHT22;30077;52.474;13.326;2023-05-16T09:52:26;12.90;99.90
44359;DHT22;30077;52.474;13.326;2023-05-16T09:57:27;13.10;99.90
44359;DHT22;30077;52.474;13.326;2023-05-16T10:02:30;13.50;99.90
44359;DHT22;30077;52.474;13.326;2023-05-16T10:07:31;14.00;99.90
44359;DHT22;30077;52.474;13.326;2023-05-16T10:12:36;13.80;99.90
44359;DHT22;30077;52.474;13.326;2023-05-16T10:17:39;13.40;99.90
44359;DHT22;30077;52.474;13.326;2023-05-16T10:22:42;13.10;99.90
44359;DHT22;30077;52.474;13.326;2023-05-16T10:27:44;12.90;99.90
44359;DHT22;30077;52.474;13.326;2023-05-16T10:32:46;13.50;99.90
44359;DHT22;30077;52.474;13.326;2023-05-16T10:37:51;14.10;99.90
44359;DHT22;30077;52.474;13.326;2023-05-16T10:42:59;14.40;99.90
44359;DHT22;30077;52.474;13.326;2023-05-16T10:48:02;14.20;99.90
44359;DHT22;30077;52.474;13.326;2023-05-16T10:53:33;13.50;99.90
44359;DHT22;30077;52.474;13.326;2023-05-16T11:03:37;13.00;99.90
44359;DHT22;30077;52.474;13.326;2023-05-16T11:14:08;13.80;99.90
44359;DHT22;30077;52.474;13.326;2023-05-16T11:19:09;14.40;99.90
44359;DHT22;30077;52.474;13.326;2023-05-16T11:24:31;14.30;99.90
44359;DHT22;30077;52.474;13.326;2023-05-16T11:29:34;14.60;99.90
44359;DHT22;30077;52.474;13.326;2023-05-16T11:34:35;14.40;99.90
44359;DHT22;30077;52.474;13.326;2023-05-16T11:39:38;14.20;99.90
44359;DHT22;30077;52.474;13.326;2023-05-16T11:44:39;14.10;99.90
44359;DHT22;30077;52.474;13.326;2023-05-16T11:49:41;14.20;99.90
44359;DHT22;30077;52.474;13.326;2023-05-16T11:54:42;14.50;99.90
44359;DHT22;30077;52.474;13.326;2023-05-16T11:59:42;15.00;99.90
44359;DHT22;30077;52.474;13.326;2023-05-16T12:04:46;15.70;99.90
44359;DHT22;30077;52.474;13.326;2023-05-16T12:09:52;16.60;99.90
44359;DHT22;30077;52.474;13.326;2023-05-16T12:14:53;16.10;99.90
44359;DHT22;30077;52.474;13.326;2023-05-16T12:19:58;15.70;99.90
44359;DHT22;30077;52.474;13.326;2023-05-16T12:24:59;16.00;99.90
44359;DHT22;30077;52.474;13.326;2023-05-16T12:30:17;16.10;99.90
44359;DHT22;30077;52.474;13.326;2023-05-16T12:35:18;15.80;99.90
44359;DHT22;30077;52.474;13.326;2023-05-16T12:40:18;15.30;99.90
44359;DHT22;30077;52.474;13.326;2023-05-16T12:45:21;15.00;99.90
44359;DHT22;30077;52.474;13.326;2023-05-16T12:50:22;15.20;99.90
44359;DHT22;30077;52.474;13.326;2023-05-16T12:55:26;15.50;99.90
44359;DHT22;30077;52.474;13.326;2023-05-16T13:00:27;15.90;99.90
44359;DHT22;30077;52.474;13.326;2023-05-16T13:05:27;15.80;99.90
44359;DHT22;30077;52.474;13.326;2023-05-16T13:10:28;16.00;99.90
44359;DHT22;30077;52.474;13.326;2023-05-16T13:15:29;16.30;99.90
44359;DHT22;30077;52.474;13.326;2023-05-16T13:20:30;15.90;99.90
44359;DHT22;30077;52.474;13.326;2023-05-16T13:25:31;16.00;99.90
44359;DHT22;30077;52.474;13.326;2023-05-16T13:30:32;16.40;99.60
44359;DHT22;30077;52.474;13.326;2023-05-16T13:35:33;16.50;99.80
44359;DHT22;30077;52.474;13.326;2023-05-16T13:40:33;16.50;98.80
44359;DHT22;30077;52.474;13.326;2023-05-16T13:45:34;16.30;97.80
44359;DHT22;30077;52.474;13.326;2023-05-16T13:50:36;16.10;98.30
44359;DHT22;30077;52.474;13.326;2023-05-16T13:55:37;15.80;98.20
44359;DHT22;30077;52.474;13.326;2023-05-16T14:00:37;16.00;97.80
44359;DHT22;30077;52.474;13.326;2023-05-16T14:05:38;16.50;97.20
44359;DHT22;30077;52.474;13.326;2023-05-16T14:10:38;16.70;96.30
44359;DHT22;30077;52.474;13.326;2023-05-16T14:15:39;17.20;94.80
44359;DHT22;30077;52.474;13.326;2023-05-16T14:20:39;17.40;94.10
44359;DHT22;30077;52.474;13.326;2023-05-16T14:25:40;17.60;93.30
44359;DHT22;30077;52.474;13.326;2023-05-16T14:30:40;17.40;93.10
44359;DHT22;30077;52.474;13.326;2023-05-16T14:35:41;17.00;92.50
44359;DHT22;30077;52.474;13.326;2023-05-16T14:40:41;17.00;92.70
44359;DHT22;30077;52.474;13.326;2023-05-16T14:45:42;16.80;92.30
44359;DHT22;30077;52.474;13.326;2023-05-16T14:50:42;17.00;92.30
44359;DHT22;30077;52.474;13.326;2023-05-16T14:55:43;17.10;91.80
44359;DHT22;30077;52.474;13.326;2023-05-16T15:00:43;17.30;91.60
44359;DHT22;30077;52.474;13.326;2023-05-16T15:05:44;17.20;91.00
44359;DHT22;30077;52.474;13.326;2023-05-16T15:10:45;17.50;90.60
44359;DHT22;30077;52.474;13.326;2023-05-16T15:15:45;17.30;89.90
44359;DHT22;30077;52.474;13.326;2023-05-16T15:20:46;17.00;87.40
44359;DHT22;30077;52.474;13.326;2023-05-16T15:25:46;17.30;87.70
44359;DHT22;30077;52.474;13.326;2023-05-16T15:30:47;17.50;86.20
44359;DHT22;30077;52.474;13.326;2023-05-16T15:35:47;17.50;85.50
44359;DHT22;30077;52.474;13.326;2023-05-16T15:40:48;17.30;83.00
44359;DHT22;30077;52.474;13.326;2023-05-16T15:45:48;17.20;82.30
44359;DHT22;30077;52.474;13.326;2023-05-16T15:50:49;17.70;83.40
44359;DHT22;30077;52.474;13.326;2023-05-16T15:55:50;17.60;82.80
44359;DHT22;30077;52.474;13.326;2023-05-16T16:00:50;17.70;80.90
44359;DHT22;30077;52.474;13.326;2023-05-16T16:05:56;18.10;79.20
44359;DHT22;30077;52.474;13.326;2023-05-16T16:10:56;17.70;80.30
44359;DHT22;30077;52.474;13.326;2023-05-16T16:15:57;18.40;79.90
44359;DHT22;30077;52.474;13.326;2023-05-16T16:20:57;18.00;79.80
44359;DHT22;30077;52.474;13.326;2023-05-16T16:25:58;18.30;79.40
44359;DHT22;30077;52.474;13.326;2023-05-16T16:30:58;18.20;79.40
44359;DHT22;30077;52.474;13.326;2023-05-16T16:35:59;18.10;79.20
44359;DHT22;30077;52.474;13.326;2023-05-16T16:41:00;19.40;76.00
44359;DHT22;30077;52.474;13.326;2023-05-16T16:46:00;19.40;74.70
44359;DHT22;30077;52.474;13.326;2023-05-16T16:51:01;18.60;74.60
44359;DHT22;30077;52.474;13.326;2023-05-16T16:56:02;17.50;75.90
44359;DHT22;30077;52.474;13.326;2023-05-16T17:01:03;18.00;76.40
44359;DHT22;30077;52.474;13.326;2023-05-16T17:06:04;18.00;74.50
44359;DHT22;30077;52.474;13.326;2023-05-16T17:11:05;17.10;75.10
44359;DHT22;30077;52.474;13.326;2023-05-16T17:16:08;17.00;75.60
44359;DHT22;30077;52.474;13.326;2023-05-16T17:21:09;16.50;76.60
44359;DHT22;30077;52.474;13.326;2023-05-16T17:26:12;16.20;78.00
44359;DHT22;30077;52.474;13.326;2023-05-16T17:31:16;15.80;79.20
44359;DHT22;30077;52.474;13.326;2023-05-16T17:36:16;15.80;81.10
44359;DHT22;30077;52.474;13.326;2023-05-16T17:41:17;15.60;81.50
44359;DHT22;30077;52.474;13.326;2023-05-16T17:46:17;15.40;81.60
44359;DHT22;30077;52.474;13.326;2023-05-16T17:51:18;15.40;82.30
44359;DHT22;30077;52.474;13.326;2023-05-16T17:56:18;15.20;82.70
44359;DHT22;30077;52.474;13.326;2023-05-16T18:01:19;15.40;82.70
44359;DHT22;30077;52.474;13.326;2023-05-16T18:06:19;15.30;81.70
44359;DHT22;30077;52.474;13.326;2023-05-16T18:11:20;15.20;82.50
44359;DHT22;30077;52.474;13.326;2023-05-16T18:16:21;15.10;83.90
44359;DHT22;30077;52.474;13.326;2023-05-16T18:21:22;14.90;84.30
44359;DHT22;30077;52.474;13.326;2023-05-16T18:26:23;14.70;84.80
44359;DHT22;30077;52.474;13.326;2023-05-16T18:31:24;14.50;86.30
44359;DHT22;30077;52.474;13.326;2023-05-16T18:36:24;14.40;87.30
44359;DHT22;30077;52.474;13.326;2023-05-16T18:41:25;14.20;87.70
44359;DHT22;30077;52.474;13.326;2023-05-16T18:46:26;14.00;88.60
44359;DHT22;30077;52.474;13.326;2023-05-16T18:51:27;13.80;89.70
44359;DHT22;30077;52.474;13.326;2023-05-16T18:56:27;13.70;90.40
44359;DHT22;30077;52.474;13.326;2023-05-16T19:01:28;13.60;90.70
44359;DHT22;30077;52.474;13.326;2023-05-16T19:06:30;13.40;91.00
44359;DHT22;30077;52.474;13.326;2023-05-16T19:11:30;13.30;91.30
44359;DHT22;30077;52.474;13.326;2023-05-16T19:16:31;13.20;91.50
44359;DHT22;30077;52.474;13.326;2023-05-16T19:21:32;13.20;91.70
44359;DHT22;30077;52.474;13.326;2023-05-16T19:26:33;13.00;91.70
44359;DHT22;30077;52.474;13.326;2023-05-16T19:31:33;12.90;91.30
44359;DHT22;30077;52.474;13.326;2023-05-16T19:36:34;12.80;91.50
44359;DHT22;30077;52.474;13.326;2023-05-16T19:41:34;12.80;91.80
44359;DHT22;30077;52.474;13.326;2023-05-16T19:46:36;12.70;91.80
44359;DHT22;30077;52.474;13.326;2023-05-16T19:51:37;12.60;92.00
44359;DHT22;30077;52.474;13.326;2023-05-16T19:56:37;12.50;92.80
44359;DHT22;30077;52.474;13.326;2023-05-16T20:01:38;12.40;93.40
44359;DHT22;30077;52.474;13.326;2023-05-16T20:06:38;12.30;93.30
44359;DHT22;30077;52.474;13.326;2023-05-16T20:11:39;12.10;93.40
44359;DHT22;30077;52.474;13.326;2023-05-16T20:16:39;12.10;93.60
44359;DHT22;30077;52.474;13.326;2023-05-16T20:21:40;12.00;94.00
44359;DHT22;30077;52.474;13.326;2023-05-16T20:26:40;11.90;94.30
44359;DHT22;30077;52.474;13.326;2023-05-16T20:31:42;11.70;94.40
44359;DHT22;30077;52.474;13.326;2023-05-16T20:36:43;11.60;94.60
44359;DHT22;30077;52.474;13.326;2023-05-16T20:41:43;11.50;94.60
44359;DHT22;30077;52.474;13.326;2023-05-16T20:46:44;11.40;94.90
44359;DHT22;30077;52.474;13.326;2023-05-16T20:51:46;11.30;95.10
44359;DHT22;30077;52.474;13.326;2023-05-16T20:56:46;11.30;95.30
44359;DHT22;30077;52.474;13.326;2023-05-16T21:01:47;11.30;95.90
44359;DHT22;30077;52.474;13.326;2023-05-16T21:06:47;11.20;96.00
44359;DHT22;30077;52.474;13.326;2023-05-16T21:11:48;11.20;96.20
44359;DHT22;30077;52.474;13.326;2023-05-16T21:16:49;11.10;96.80
44359;DHT22;30077;52.474;13.326;2023-05-16T21:21:51;11.10;97.10
44359;DHT22;30077;52.474;13.326;2023-05-16T21:26:51;11.10;97.50
44359;DHT22;30077;52.474;13.326;2023-05-16T21:31:52;11.00;97.60
44359;DHT22;30077;52.474;13.326;2023-05-16T21:36:52;11.00;98.20
44359;DHT22;30077;52.474;13.326;2023-05-16T21:41:53;10.90;98.70
44359;DHT22;30077;52.474;13.326;2023-05-16T21:46:53;10.80;98.80
44359;DHT22;30077;52.474;13.326;2023-05-16T21:51:54;10.80;99.00
44359;DHT22;30077;52.474;13.326;2023-05-16T21:56:54;10.70;99.60
44359;DHT22;30077;52.474;13.326;2023-05-16T22:01:55;10.60;99.80
44359;DHT22;30077;52.474;13.326;2023-05-16T22:06:55;10.60;99.90
44359;DHT22;30077;52.474;13.326;2023-05-16T22:11:55;10.50;99.90
44359;DHT22;30077;52.474;13.326;2023-05-16T22:16:56;10.50;99.90
44359;DHT22;30077;52.474;13.326;2023-05-16T22:21:56;10.40;99.90
44359;DHT22;30077;52.474;13.326;2023-05-16T22:26:57;10.30;99.90
44359;DHT22;30077;52.474;13.326;2023-05-16T22:31:57;10.30;99.90
44359;DHT22;30077;52.474;13.326;2023-05-16T22:36:58;10.20;99.90
44359;DHT22;30077;52.474;13.326;2023-05-16T22:41:58;10.20;99.90
44359;DHT22;30077;52.474;13.326;2023-05-16T22:47:00;10.20;99.90
44359;DHT22;30077;52.474;13.326;2023-05-16T22:52:00;10.10;99.90
44359;DHT22;30077;52.474;13.326;2023-05-16T22:57:01;10.10;99.90
44359;DHT22;30077;52.474;13.326;2023-05-16T23:02:01;10.00;99.90
44359;DHT22;30077;52.474;13.326;2023-05-16T23:07:02;10.00;99.90
44359;DHT22;30077;52.474;13.326;2023-05-16T23:12:03;10.00;99.90
44359;DHT22;30077;52.474;13.326;2023-05-16T23:17:03;9.90;99.90
44359;DHT22;30077;52.474;13.326;2023-05-16T23:22:04;9.80;99.90
44359;DHT22;30077;52.474;13.326;2023-05-16T23:27:05;9.80;99.90
44359;DHT22;30077;52.474;13.326;2023-05-16T23:32:06;9.70;99.90
44359;DHT22;30077;52.474;13.326;2023-05-16T23:37:06;9.70;99.90
44359;DHT22;30077;52.474;13.326;2023-05-16T23:42:07;9.70;99.90
44359;DHT22;30077;52.474;13.326;2023-05-16T23:47:07;9.60;99.90
44359;DHT22;30077;52.474;13.326;2023-05-16T23:52:08;9.60;99.90
44359;DHT22;30077;52.474;13.326;2023-05-16T23:57:09;9.50;99.90
